createdAt,value
2017-05-18T00:01:53.507Z,54.20
2017-05-18T00:04:23.400Z,53.60
2017-05-18T00:06:53.354Z,53.40
2017-05-18T00:09:23.268Z,53.20
2017-05-18T00:11:55.025Z,53.30
2017-05-18T00:14:24.951Z,53.80
2017-05-18T00:16:55.570Z,53.70
2017-05-18T00:19:25.494Z,52.40
2017-05-18T00:21:55.396Z,52.60
2017-05-18T00:24:25.319Z,53.30
2017-05-18T00:26:55.197Z,54.70
2017-05-18T00:29:25.141Z,55.00
2017-05-18T00:31:55.031Z,53.90
2017-05-18T00:34:24.945Z,53.40
2017-05-18T00:36:55.731Z,53.70
2017-05-18T00:39:26.378Z,53.80
2017-05-18T00:41:56.318Z,54.00
2017-05-18T00:44:26.244Z,54.40
2017-05-18T00:46:56.143Z,54.10
2017-05-18T00:49:26.101Z,54.30
2017-05-18T00:51:56.725Z,53.80
2017-05-18T00:54:26.667Z,55.70
2017-05-18T00:56:56.568Z,56.50
2017-05-18T00:59:54.125Z,57.70
2017-05-18T01:02:24.751Z,58.40
2017-05-18T01:04:55.420Z,58.20
2017-05-18T01:07:25.318Z,56.90
2017-05-18T01:09:55.284Z,56.70
2017-05-18T01:12:25.185Z,56.60
2017-05-18T01:14:55.124Z,56.00
2017-05-18T01:17:25.015Z,56.70
2017-05-18T01:19:55.481Z,56.50
2017-05-18T01:22:26.111Z,56.60
2017-05-18T01:24:56.787Z,56.90
2017-05-18T01:27:26.721Z,56.90
2017-05-18T01:29:56.605Z,56.90
2017-05-18T01:32:26.528Z,56.50
2017-05-18T01:34:56.419Z,56.90
2017-05-18T01:37:26.362Z,56.30
2017-05-18T01:39:56.266Z,56.40
2017-05-18T01:42:26.200Z,56.60
2017-05-18T01:44:56.087Z,56.50
2017-05-18T01:47:53.645Z,57.20
2017-05-18T01:50:23.525Z,57.70
2017-05-18T01:52:56.575Z,58.50
2017-05-18T01:55:26.518Z,58.60
2017-05-18T01:57:56.414Z,58.60
2017-05-18T02:00:26.356Z,58.80
2017-05-18T02:02:56.257Z,59.60
2017-05-18T02:05:26.184Z,59.40
2017-05-18T02:07:56.075Z,59.00
2017-05-18T02:10:26.005Z,59.70
2017-05-18T02:12:55.891Z,59.10
2017-05-18T02:15:53.368Z,58.30
2017-05-18T02:18:23.380Z,59.30
2017-05-18T02:20:53.311Z,59.30
2017-05-18T02:23:23.212Z,59.90
2017-05-18T02:25:53.164Z,60.40
2017-05-18T02:28:23.791Z,59.70
2017-05-18T02:30:55.729Z,60.60
2017-05-18T02:33:25.638Z,60.00
2017-05-18T02:35:55.562Z,60.30
2017-05-18T02:38:25.455Z,59.90
2017-05-18T02:40:55.381Z,61.70
2017-05-18T02:43:25.260Z,60.70
2017-05-18T02:45:55.191Z,60.10
2017-05-18T02:48:25.127Z,61.40
2017-05-18T02:50:55.010Z,60.90
2017-05-18T02:53:24.947Z,60.10
2017-05-18T02:55:54.849Z,59.60
2017-05-18T02:58:24.792Z,60.80
2017-05-18T03:00:54.763Z,61.10
2017-05-18T03:03:24.722Z,60.40
2017-05-18T03:05:54.601Z,60.30
2017-05-18T03:08:24.549Z,59.90
2017-05-18T03:10:54.438Z,62.10
2017-05-18T03:13:24.372Z,63.60
2017-05-18T03:15:55.730Z,63.30
2017-05-18T03:18:25.630Z,62.20
2017-05-18T03:20:55.569Z,64.00
2017-05-18T03:23:26.203Z,64.50
2017-05-18T03:29:05.455Z,64.50
2017-05-18T03:31:36.080Z,65.30
2017-05-18T03:34:06.769Z,66.20
2017-05-18T03:36:36.650Z,64.00
2017-05-18T03:39:06.570Z,65.50
2017-05-18T03:41:36.503Z,66.80
2017-05-18T03:44:06.393Z,66.00
2017-05-18T03:46:36.322Z,65.60
2017-05-18T03:49:06.242Z,65.00
2017-05-18T03:51:36.131Z,64.50
2017-05-18T03:57:14.392Z,65.60
2017-05-18T03:59:44.277Z,65.00
2017-05-18T04:02:14.207Z,64.90
2017-05-18T04:04:44.094Z,65.00
2017-05-18T04:07:14.015Z,64.60
2017-05-18T04:09:43.908Z,64.20
2017-05-18T04:12:14.570Z,63.60
2017-05-18T04:14:44.472Z,64.80
2017-05-18T04:17:14.389Z,64.60
2017-05-18T04:19:44.319Z,64.30
2017-05-18T04:22:14.214Z,63.90
2017-05-18T04:24:44.148Z,63.70
2017-05-18T04:27:14.060Z,64.60
2017-05-18T04:29:43.978Z,64.90
2017-05-18T04:32:13.893Z,63.50
2017-05-18T04:34:43.823Z,63.70
2017-05-18T04:40:21.488Z,64.70
2017-05-18T04:42:51.393Z,66.10
2017-05-18T04:45:21.346Z,65.00
2017-05-18T04:47:51.222Z,66.20
2017-05-18T04:50:21.894Z,65.50
2017-05-18T04:52:57.596Z,64.90
2017-05-18T04:55:28.223Z,65.30
2017-05-18T04:57:58.149Z,65.50
2017-05-18T05:00:28.780Z,64.50
2017-05-18T05:02:59.447Z,65.50
2017-05-18T05:05:55.553Z,64.30
2017-05-18T05:08:25.499Z,63.70
2017-05-18T05:10:55.387Z,64.30
2017-05-18T05:13:25.307Z,64.30
2017-05-18T05:15:55.225Z,63.50
2017-05-18T05:18:25.110Z,64.10
2017-05-18T05:20:55.782Z,64.50
2017-05-18T05:23:25.661Z,64.20
2017-05-18T05:25:55.612Z,64.40
2017-05-18T05:28:25.501Z,63.40
2017-05-18T05:30:55.436Z,63.70
2017-05-18T05:33:25.333Z,62.40
2017-05-18T05:35:55.264Z,61.70
2017-05-18T05:38:25.164Z,61.80
2017-05-18T05:40:55.106Z,61.30
2017-05-18T05:43:25.008Z,61.40
2017-05-18T05:45:56.182Z,61.40
2017-05-18T05:48:26.067Z,60.50
2017-05-18T05:50:56.007Z,61.10
2017-05-18T05:53:25.896Z,61.30
2017-05-18T05:55:55.840Z,60.70
2017-05-18T05:58:25.721Z,60.60
2017-05-18T06:00:55.630Z,59.90
2017-05-18T06:03:53.842Z,60.10
2017-05-18T06:06:23.722Z,59.70
2017-05-18T06:08:53.647Z,59.80
2017-05-18T06:11:23.589Z,59.50
2017-05-18T06:13:55.270Z,59.40
2017-05-18T06:16:25.931Z,58.90
2017-05-18T06:18:55.877Z,58.90
2017-05-18T06:21:25.766Z,58.80
2017-05-18T06:23:55.691Z,58.30
2017-05-18T06:26:25.636Z,58.40
2017-05-18T06:28:55.534Z,57.50
2017-05-18T06:31:53.729Z,57.50
2017-05-18T06:34:23.658Z,56.70
2017-05-18T06:36:54.281Z,56.80
2017-05-18T06:39:24.950Z,55.80
2017-05-18T06:41:55.477Z,55.80
2017-05-18T06:44:25.405Z,55.80
2017-05-18T06:46:55.286Z,55.30
2017-05-18T06:49:25.206Z,55.20
2017-05-18T06:51:55.110Z,55.50
2017-05-18T06:54:25.778Z,55.40
2017-05-18T06:56:55.673Z,54.70
2017-05-18T06:59:55.149Z,53.90
2017-05-18T07:02:25.773Z,53.30
2017-05-18T07:04:55.686Z,53.10
2017-05-18T07:07:25.657Z,53.10
2017-05-18T07:13:03.451Z,52.90
2017-05-18T07:15:33.335Z,53.00
2017-05-18T07:18:04.010Z,51.40
2017-05-18T07:20:33.900Z,52.00
2017-05-18T07:23:04.565Z,52.00
2017-05-18T07:25:34.451Z,51.50
2017-05-18T07:28:04.365Z,51.20
2017-05-18T07:30:34.279Z,50.20
2017-05-18T07:33:04.163Z,51.00
2017-05-18T07:35:34.087Z,50.20
2017-05-18T07:40:43.679Z,50.10
2017-05-18T07:43:13.584Z,50.00
2017-05-18T07:45:43.622Z,49.60
2017-05-18T07:48:13.540Z,49.20
2017-05-18T07:50:43.456Z,48.80
2017-05-18T07:53:13.349Z,48.80
2017-05-18T07:55:43.300Z,48.40
2017-05-18T07:58:13.186Z,48.10
2017-05-18T08:00:43.107Z,48.00
2017-05-18T08:03:13.003Z,48.20
2017-05-18T08:05:56.209Z,46.30
2017-05-18T08:08:54.203Z,46.70
2017-05-18T08:11:24.086Z,47.60
2017-05-18T08:13:54.763Z,47.20
2017-05-18T08:16:24.679Z,46.70
2017-05-18T08:18:55.701Z,46.20
2017-05-18T08:21:25.634Z,45.40
2017-05-18T08:23:55.517Z,46.40
2017-05-18T08:26:25.437Z,45.00
2017-05-18T08:28:56.236Z,45.80
2017-05-18T08:31:26.117Z,44.00
2017-05-18T08:33:56.110Z,43.10
2017-05-18T08:36:25.989Z,42.60
2017-05-18T08:38:56.672Z,43.50
2017-05-18T08:41:26.604Z,43.30
2017-05-18T08:43:56.889Z,41.40
2017-05-18T08:46:26.763Z,41.00
2017-05-18T08:48:56.718Z,42.70
2017-05-18T08:51:26.604Z,41.30
2017-05-18T08:53:57.252Z,41.20
2017-05-18T08:56:27.172Z,41.40
2017-05-18T08:58:57.055Z,41.40
2017-05-18T09:01:54.336Z,40.90
2017-05-18T09:04:24.214Z,40.40
2017-05-18T09:06:54.136Z,40.50
2017-05-18T09:09:24.042Z,39.10
2017-05-18T09:11:54.289Z,39.40
2017-05-18T09:14:24.912Z,40.30
2017-05-18T09:16:55.604Z,38.60
2017-05-18T09:19:25.482Z,40.30
2017-05-18T09:21:55.414Z,41.40
2017-05-18T09:24:25.304Z,39.70
2017-05-18T09:26:55.257Z,41.20
2017-05-18T09:29:25.141Z,40.60
2017-05-18T09:31:55.678Z,40.60
2017-05-18T09:34:25.551Z,40.70
2017-05-18T09:36:56.210Z,41.10
2017-05-18T09:39:26.091Z,41.70
2017-05-18T09:41:56.760Z,42.80
2017-05-18T09:44:54.432Z,41.30
2017-05-18T09:47:54.326Z,41.40
2017-05-18T09:50:24.241Z,41.10
2017-05-18T09:52:54.161Z,41.10
2017-05-18T09:55:24.042Z,40.50
2017-05-18T09:57:57.364Z,40.20
2017-05-18T10:00:27.259Z,39.70
2017-05-18T10:02:57.928Z,39.00
2017-05-18T10:05:27.807Z,39.10
2017-05-18T10:07:58.472Z,39.80
2017-05-18T10:10:28.389Z,37.90
2017-05-18T10:12:58.268Z,37.80
2017-05-18T10:15:28.919Z,38.00
2017-05-18T10:17:58.789Z,37.50
2017-05-18T10:20:28.693Z,38.60
2017-05-18T10:22:58.578Z,37.20
2017-05-18T10:25:54.277Z,38.00
2017-05-18T10:28:24.157Z,37.30
2017-05-18T10:30:54.130Z,37.80
2017-05-18T10:33:24.021Z,38.50
2017-05-18T10:35:53.936Z,37.90
2017-05-18T10:38:23.832Z,39.30
2017-05-18T10:40:54.485Z,38.50
2017-05-18T10:43:24.408Z,38.40
2017-05-18T10:45:54.323Z,38.50
2017-05-18T10:48:24.255Z,38.70
2017-05-18T10:50:54.144Z,37.70
2017-05-18T10:53:24.067Z,38.20
2017-05-18T10:55:55.771Z,37.80
2017-05-18T10:58:26.430Z,38.10
2017-05-18T11:00:56.318Z,38.10
2017-05-18T11:03:26.977Z,39.20
2017-05-18T11:05:56.866Z,38.00
2017-05-18T11:08:27.571Z,37.60
2017-05-18T11:10:57.445Z,37.60
2017-05-18T11:13:27.357Z,37.50
2017-05-18T11:15:57.247Z,38.30
2017-05-18T11:18:27.913Z,38.30
2017-05-18T11:20:57.859Z,38.60
2017-05-18T11:23:27.782Z,38.10
2017-05-18T11:25:57.718Z,38.40
2017-05-18T11:28:28.351Z,38.90
2017-05-18T11:30:59.003Z,39.20
2017-05-18T11:33:28.883Z,39.00
2017-05-18T11:35:58.794Z,38.20
2017-05-18T11:38:28.687Z,39.10
2017-05-18T11:40:58.609Z,39.00
2017-05-18T11:43:28.496Z,38.40
2017-05-18T11:45:58.435Z,38.70
2017-05-18T11:48:28.318Z,39.00
2017-05-18T11:50:58.265Z,38.80
2017-05-18T11:53:28.148Z,38.70
2017-05-18T11:55:58.051Z,38.30
2017-05-18T11:58:27.966Z,38.70
2017-05-18T12:00:57.847Z,38.30
2017-05-18T12:03:54.526Z,38.90
2017-05-18T12:06:24.450Z,38.10
2017-05-18T12:08:54.335Z,37.30
2017-05-18T12:11:24.254Z,38.20
2017-05-18T12:13:54.135Z,37.90
2017-05-18T12:16:24.790Z,37.70
2017-05-18T12:18:54.689Z,37.50
2017-05-18T12:21:25.370Z,36.90
2017-05-18T12:23:55.256Z,37.00
2017-05-18T12:26:25.188Z,36.60
2017-05-18T12:28:55.071Z,36.70
2017-05-18T12:34:17.552Z,37.00
2017-05-18T12:36:47.450Z,36.10
2017-05-18T12:39:17.373Z,36.10
2017-05-18T12:41:47.258Z,35.90
2017-05-18T12:44:17.920Z,36.30
2017-05-18T12:46:47.846Z,35.90
2017-05-18T12:49:17.761Z,35.60
2017-05-18T12:51:47.642Z,35.50
2017-05-18T12:54:18.300Z,35.00
2017-05-18T12:56:48.179Z,35.20
2017-05-18T12:59:18.853Z,34.40
2017-05-18T13:01:48.786Z,34.10
2017-05-18T13:04:18.670Z,34.20
2017-05-18T13:06:48.609Z,34.30
2017-05-18T13:09:18.519Z,33.30
2017-05-18T13:11:48.433Z,33.90
2017-05-18T13:14:18.307Z,33.00
2017-05-18T13:16:56.127Z,33.40
2017-05-18T13:19:26.021Z,34.30
2017-05-18T13:21:55.957Z,33.40
2017-05-18T13:24:25.828Z,33.60
2017-05-18T13:26:56.512Z,32.00
2017-05-18T13:29:26.393Z,32.80
2017-05-18T13:31:56.302Z,32.80
2017-05-18T13:34:26.173Z,33.50
2017-05-18T13:36:56.120Z,32.20
2017-05-18T13:39:26.737Z,32.50
2017-05-18T13:41:56.669Z,32.20
2017-05-18T13:44:54.235Z,31.70
2017-05-18T13:47:23.386Z,31.60
2017-05-18T13:49:53.316Z,32.00
2017-05-18T13:52:23.200Z,31.50
2017-05-18T13:54:56.268Z,31.40
2017-05-18T13:57:27.272Z,31.00
2017-05-18T13:59:57.940Z,30.80
2017-05-18T14:02:27.839Z,31.40
2017-05-18T14:04:57.806Z,30.90
2017-05-18T14:07:27.727Z,30.00
2017-05-18T14:09:57.644Z,31.00
2017-05-18T14:12:54.846Z,30.70
2017-05-18T14:15:24.771Z,31.30
2017-05-18T14:17:54.670Z,30.80
2017-05-18T14:20:24.909Z,30.20
2017-05-18T14:22:56.539Z,30.70
2017-05-18T14:25:26.484Z,29.60
2017-05-18T14:27:56.369Z,29.70
2017-05-18T14:30:26.290Z,30.20
2017-05-18T14:32:56.185Z,30.00
2017-05-18T14:35:26.861Z,30.00
2017-05-18T14:37:56.950Z,29.80
2017-05-18T14:40:26.872Z,29.50
2017-05-18T14:42:56.751Z,29.30
2017-05-18T14:45:27.409Z,28.50
2017-05-18T14:47:57.286Z,28.00
2017-05-18T14:50:27.226Z,28.50
2017-05-18T14:52:57.127Z,28.70
2017-05-18T14:55:27.782Z,28.50
2017-05-18T14:57:57.700Z,27.60
2017-05-18T15:00:27.586Z,28.40
2017-05-18T15:02:59.039Z,27.60
2017-05-18T15:09:54.235Z,28.20
2017-05-18T15:12:54.043Z,29.00
2017-05-18T15:18:53.036Z,27.50
2017-05-18T15:24:55.248Z,29.40
2017-05-18T15:30:56.892Z,26.40
2017-05-18T15:36:56.483Z,28.40
2017-05-18T15:39:54.374Z,29.10
2017-05-18T15:42:38.344Z,28.50
2017-05-18T15:45:08.289Z,28.40
2017-05-18T15:50:49.059Z,28.20
2017-05-18T16:02:53.291Z,27.20
2017-05-18T16:05:54.376Z,28.20
2017-05-18T16:08:24.315Z,27.90
2017-05-18T16:10:57.348Z,28.50
2017-05-18T16:13:54.914Z,28.50
2017-05-18T16:16:55.590Z,27.90
2017-05-18T16:19:25.502Z,26.70
2017-05-18T16:21:55.382Z,28.20
2017-05-18T16:24:55.351Z,27.70
2017-05-18T16:33:55.889Z,27.40
2017-05-18T16:36:52.558Z,27.60
2017-05-18T16:39:22.474Z,28.90
2017-05-18T16:41:52.360Z,29.00
2017-05-18T16:53:30.378Z,28.90
2017-05-18T16:59:09.341Z,29.80
2017-05-18T17:01:39.273Z,29.10
2017-05-18T17:04:09.144Z,30.00
2017-05-18T17:06:39.817Z,30.40
2017-05-18T17:09:09.694Z,30.90
2017-05-18T17:11:40.363Z,29.80
2017-05-18T17:14:10.256Z,29.40
2017-05-18T17:16:56.765Z,30.00
2017-05-18T17:22:56.615Z,30.30
2017-05-18T17:25:54.671Z,30.90
2017-05-18T17:31:23.270Z,31.50
2017-05-18T17:33:56.594Z,32.10
2017-05-18T17:36:26.531Z,31.50
2017-05-18T17:38:56.422Z,32.40
2017-05-18T17:41:26.342Z,31.60
2017-05-18T17:43:56.222Z,32.70
2017-05-18T17:46:26.148Z,32.80
2017-05-18T17:48:56.107Z,32.70
2017-05-18T17:51:26.300Z,32.40
2017-05-18T17:57:04.907Z,33.40
2017-05-18T17:59:54.942Z,33.20
2017-05-18T18:02:34.832Z,33.20
2017-05-18T18:10:55.699Z,34.00
2017-05-18T18:16:54.936Z,35.00
2017-05-18T18:19:55.238Z,34.70
2017-05-18T18:22:55.098Z,35.60
2017-05-18T18:25:54.962Z,35.80
2017-05-18T18:28:54.872Z,35.90
2017-05-18T18:31:54.595Z,36.00
2017-05-18T18:34:54.520Z,36.50
2017-05-18T18:37:24.441Z,36.50
2017-05-18T18:39:54.360Z,36.60
2017-05-18T18:42:24.247Z,37.30
2017-05-18T18:44:57.897Z,37.10
2017-05-18T18:47:47.961Z,36.90
2017-05-18T18:56:56.015Z,37.70
2017-05-18T19:02:55.473Z,38.30
2017-05-18T19:05:55.613Z,38.30
2017-05-18T19:08:54.404Z,38.80
2017-05-18T19:11:55.079Z,38.80
2017-05-18T19:14:25.015Z,38.80
2017-05-18T19:16:55.909Z,39.00
2017-05-18T19:19:56.224Z,39.30
2017-05-18T19:22:26.117Z,39.20
2017-05-18T19:24:56.043Z,39.50
2017-05-18T19:27:26.666Z,39.90
2017-05-18T19:29:56.604Z,39.80
2017-05-18T19:32:26.481Z,40.10
2017-05-18T19:34:56.411Z,40.40
2017-05-18T19:37:27.028Z,41.10
2017-05-18T19:39:57.014Z,41.00
2017-05-18T19:42:26.891Z,41.30
2017-05-18T19:44:56.830Z,42.40
2017-05-18T19:47:26.713Z,41.70
2017-05-18T19:49:56.940Z,42.10
2017-05-18T19:52:26.868Z,42.50
2017-05-18T19:54:56.747Z,42.80
2017-05-18T19:57:27.426Z,42.80
2017-05-18T19:59:57.341Z,43.20
2017-05-18T20:02:27.257Z,43.10
2017-05-18T20:04:57.191Z,42.90
2017-05-18T20:07:27.079Z,43.50
2017-05-18T20:09:56.947Z,44.10
2017-05-18T20:12:54.405Z,44.70
2017-05-18T20:15:55.311Z,44.00
2017-05-18T20:18:25.271Z,44.30
2017-05-18T20:20:55.883Z,44.50
2017-05-18T20:23:25.911Z,44.00
2017-05-18T20:25:56.540Z,44.10
2017-05-18T20:28:54.794Z,44.10
2017-05-18T20:31:24.687Z,44.80
2017-05-18T20:33:54.622Z,44.70
2017-05-18T20:36:24.504Z,45.20
2017-05-18T20:38:54.414Z,45.50
2017-05-18T20:41:24.521Z,45.60
2017-05-18T20:43:54.406Z,45.70
2017-05-18T20:46:25.186Z,45.20
2017-05-18T20:48:55.077Z,45.20
2017-05-18T20:51:25.423Z,46.10
2017-05-18T20:53:55.304Z,45.50
2017-05-18T20:56:26.135Z,46.00
2017-05-18T20:58:56.756Z,46.40
2017-05-18T21:01:27.409Z,46.50
2017-05-18T21:03:57.292Z,46.60
2017-05-18T21:06:27.978Z,46.90
2017-05-18T21:08:57.873Z,47.20
2017-05-18T21:11:55.166Z,47.00
2017-05-18T21:14:25.059Z,48.10
2017-05-18T21:16:54.973Z,47.30
2017-05-18T21:19:24.862Z,47.70
2017-05-18T21:21:54.744Z,48.70
2017-05-18T21:24:24.686Z,48.30
2017-05-18T21:26:54.577Z,49.20
2017-05-18T21:29:24.521Z,49.10
2017-05-18T21:31:54.390Z,49.20
2017-05-18T21:34:24.256Z,48.40
2017-05-18T21:36:57.590Z,48.40
2017-05-18T21:39:27.510Z,48.90
2017-05-18T21:41:57.430Z,49.00
2017-05-18T21:44:27.318Z,49.40
2017-05-18T21:46:57.191Z,49.90
2017-05-18T21:49:27.127Z,49.20
2017-05-18T21:51:57.204Z,49.90
2017-05-18T21:54:27.866Z,49.00
2017-05-18T22:00:07.034Z,49.40
2017-05-18T22:02:36.923Z,51.80
2017-05-18T22:05:06.835Z,52.90
2017-05-18T22:07:36.715Z,52.90
2017-05-18T22:10:06.636Z,51.70
2017-05-18T22:12:36.519Z,52.00
2017-05-18T22:15:06.389Z,52.20
2017-05-18T22:17:56.168Z,52.20
2017-05-18T22:20:56.199Z,53.10
2017-05-18T22:23:26.126Z,53.50
2017-05-18T22:25:55.997Z,54.00
2017-05-18T22:28:26.651Z,53.70
2017-05-18T22:30:56.518Z,53.70
2017-05-18T22:33:53.455Z,54.70
2017-05-18T22:36:23.349Z,54.40
2017-05-18T22:38:53.278Z,54.40
2017-05-18T22:41:23.149Z,55.40
2017-05-18T22:43:53.036Z,54.70
2017-05-18T22:46:23.024Z,55.00
2017-05-18T22:48:56.481Z,53.60
2017-05-18T22:51:26.398Z,54.20
2017-05-18T22:53:56.596Z,55.20
2017-05-18T22:56:27.263Z,55.40
2017-05-18T22:58:57.144Z,53.20
2017-05-18T23:01:27.808Z,54.10
2017-05-18T23:03:57.682Z,54.00
2017-05-18T23:06:28.346Z,53.70
2017-05-18T23:08:58.227Z,53.30
2017-05-18T23:11:28.901Z,52.30
2017-05-18T23:13:58.789Z,52.80
2017-05-18T23:16:55.191Z,52.20
2017-05-18T23:19:54.976Z,52.50
2017-05-18T23:22:24.893Z,54.50
2017-05-18T23:24:54.762Z,55.60
2017-05-18T23:30:56.098Z,56.00
2017-05-18T23:33:55.879Z,54.60
2017-05-18T23:36:25.797Z,53.40
2017-05-18T23:38:55.677Z,53.70
2017-05-18T23:41:55.440Z,53.40
2017-05-18T23:44:55.262Z,52.80
2017-05-18T23:47:25.214Z,54.80
2017-05-18T23:49:55.094Z,56.20
2017-05-18T23:52:24.979Z,56.30
2017-05-18T23:54:54.979Z,56.70
2017-05-18T23:57:55.508Z,56.60
